createdAt,value
2024-04-06T00:00:55.479Z,94781.00
2024-04-06T00:02:03.434Z,94781.00
2024-04-06T00:02:55.485Z,94784.00
2024-04-06T00:03:55.492Z,94788.00
2024-04-06T00:05:16.491Z,94788.00
2024-04-06T00:05:55.487Z,94788.00
2024-04-06T00:06:55.528Z,94792.00
2024-04-06T00:08:23.948Z,94794.00
2024-04-06T00:08:55.495Z,94793.00
2024-04-06T00:09:55.512Z,94796.00
2024-04-06T00:10:55.487Z,94796.00
2024-04-06T00:11:55.494Z,94794.00
2024-04-06T00:12:55.496Z,94796.00
2024-04-06T00:13:55.496Z,94790.00
2024-04-06T00:14:55.495Z,94794.00
2024-04-06T00:15:55.498Z,94793.00
2024-04-06T00:16:55.515Z,94794.00
2024-04-06T00:17:55.502Z,94793.00
2024-04-06T00:18:55.498Z,94795.00
2024-04-06T00:19:55.509Z,94795.00
2024-04-06T00:20:55.507Z,94797.00
2024-04-06T00:21:55.497Z,94796.00
2024-04-06T00:22:55.502Z,94797.00
2024-04-06T00:23:55.507Z,94796.00
2024-04-06T00:24:55.496Z,94797.00
2024-04-06T00:25:55.502Z,94796.00
2024-04-06T00:27:10.477Z,94797.00
2024-04-06T00:27:55.511Z,94799.00
2024-04-06T00:28:55.502Z,94798.00
2024-04-06T00:30:16.515Z,94797.00
2024-04-06T00:30:55.510Z,94798.00
2024-04-06T00:31:55.503Z,94799.00
2024-04-06T00:33:16.518Z,94800.00
2024-04-06T00:33:55.506Z,94802.00
2024-04-06T00:34:55.513Z,94804.00
2024-04-06T00:35:55.509Z,94807.00
2024-04-06T00:36:55.519Z,94807.00
2024-04-06T00:37:55.516Z,94807.00
2024-04-06T00:38:55.513Z,94807.00
2024-04-06T00:39:55.525Z,94807.00
2024-04-06T00:40:55.509Z,94807.00
2024-04-06T00:41:55.514Z,94808.00
2024-04-06T00:42:55.515Z,94807.00
2024-04-06T00:43:55.512Z,94806.00
2024-04-06T00:44:55.526Z,94807.00
2024-04-06T00:45:55.509Z,94801.00
2024-04-06T00:46:55.509Z,94802.00
2024-04-06T00:47:55.513Z,94802.00
2024-04-06T00:48:55.524Z,94803.00
2024-04-06T00:49:55.521Z,94804.00
2024-04-06T00:50:55.528Z,94806.00
2024-04-06T00:51:55.511Z,94807.00
2024-04-06T00:52:55.510Z,94807.00
2024-04-06T00:53:55.517Z,94808.00
2024-04-06T00:54:56.466Z,94811.00
2024-04-06T00:55:55.513Z,94811.00
2024-04-06T00:56:55.528Z,94811.00
2024-04-06T00:58:23.469Z,94814.00
2024-04-06T00:58:55.531Z,94813.00
2024-04-06T00:59:55.525Z,94818.00
2024-04-06T01:01:10.455Z,94818.00
2024-04-06T01:02:04.104Z,94820.00
2024-04-06T01:02:56.536Z,94821.00
2024-04-06T01:03:55.534Z,94822.00
2024-04-06T01:04:55.536Z,94822.00
2024-04-06T01:05:55.534Z,94821.00
2024-04-06T01:06:55.540Z,94821.00
2024-04-06T01:07:55.543Z,94820.00
2024-04-06T01:08:55.541Z,94821.00
2024-04-06T01:09:55.536Z,94821.00
2024-04-06T01:10:55.540Z,94821.00
2024-04-06T01:11:55.538Z,94819.00
2024-04-06T01:12:55.541Z,94819.00
2024-04-06T01:13:55.542Z,94820.00
2024-04-06T01:14:55.540Z,94818.00
2024-04-06T01:15:55.539Z,94818.00
2024-04-06T01:17:02.959Z,94822.00
2024-04-06T01:17:55.541Z,94824.00
2024-04-06T01:18:55.545Z,94826.00
2024-04-06T01:19:55.548Z,94827.00
2024-04-06T01:20:55.540Z,94828.00
2024-04-06T01:21:55.548Z,94827.00
2024-04-06T01:23:02.463Z,94825.00
2024-04-06T01:23:55.544Z,94824.00
2024-04-06T01:24:55.549Z,94820.00
2024-04-06T01:26:10.484Z,94819.00
2024-04-06T01:26:55.555Z,94820.00
2024-04-06T01:27:55.559Z,94820.00
2024-04-06T01:28:55.558Z,94820.00
2024-04-06T01:29:55.563Z,94822.00
2024-04-06T01:30:55.553Z,94824.00
2024-04-06T01:31:55.567Z,94827.00
2024-04-06T01:32:55.578Z,94825.00
2024-04-06T01:33:55.546Z,94825.00
2024-04-06T01:34:55.561Z,94825.00
2024-04-06T01:35:55.550Z,94826.00
2024-04-06T01:36:55.548Z,94825.00
2024-04-06T01:37:55.545Z,94826.00
2024-04-06T01:38:55.544Z,94827.00
2024-04-06T01:39:55.553Z,94828.00
2024-04-06T01:40:55.565Z,94830.00
2024-04-06T01:41:55.573Z,94830.00
2024-04-06T01:42:55.633Z,94830.00
2024-04-06T01:43:55.578Z,94828.00
2024-04-06T01:44:58.979Z,94829.00
2024-04-06T01:45:55.598Z,94830.00
2024-04-06T01:46:55.572Z,94832.00
2024-04-06T01:48:11.990Z,94832.00
2024-04-06T01:48:55.668Z,94834.00
2024-04-06T01:49:55.646Z,94835.00
2024-04-06T01:51:26.997Z,94836.00
2024-04-06T01:51:55.602Z,94843.00
2024-04-06T01:52:55.689Z,94841.00
2024-04-06T01:54:18.489Z,94840.00
2024-04-06T01:54:55.692Z,94843.00
2024-04-06T01:55:55.677Z,94844.00
2024-04-06T01:56:55.655Z,94842.00
2024-04-06T01:57:55.650Z,94847.00
2024-04-06T01:58:55.683Z,94847.00
2024-04-06T01:59:55.583Z,94848.00
2024-04-06T02:00:55.694Z,94851.00
2024-04-06T02:01:55.612Z,94852.00
2024-04-06T02:02:55.597Z,94850.00
2024-04-06T02:03:55.593Z,94850.00
2024-04-06T02:04:55.588Z,94851.00
2024-04-06T02:05:55.588Z,94848.00
2024-04-06T02:06:55.591Z,94846.00
2024-04-06T02:07:55.585Z,94846.00
2024-04-06T02:08:55.590Z,94845.00
2024-04-06T02:09:55.594Z,94845.00
2024-04-06T02:10:55.599Z,94847.00
2024-04-06T02:11:55.597Z,94848.00
2024-04-06T02:12:55.601Z,94850.00
2024-04-06T02:13:55.606Z,94848.00
2024-04-06T02:14:55.633Z,94848.00
2024-04-06T02:16:10.486Z,94847.00
2024-04-06T02:16:55.651Z,94848.00
2024-04-06T02:17:55.664Z,94849.00
2024-04-06T02:19:10.491Z,94848.00
2024-04-06T02:19:55.672Z,94848.00
2024-04-06T02:20:55.662Z,94851.00
2024-04-06T02:21:55.664Z,94851.00
2024-04-06T02:22:55.667Z,94851.00
2024-04-06T02:23:55.681Z,94853.00
2024-04-06T02:24:55.670Z,94853.00
2024-04-06T02:25:55.672Z,94854.00
2024-04-06T02:26:55.677Z,94854.00
2024-04-06T02:27:55.681Z,94855.00
2024-04-06T02:28:55.675Z,94857.00
2024-04-06T02:29:55.679Z,94862.00
2024-04-06T02:30:55.673Z,94862.00
2024-04-06T02:31:55.695Z,94862.00
2024-04-06T02:32:55.681Z,94866.00
2024-04-06T02:33:55.675Z,94867.00
2024-04-06T02:35:01.024Z,94872.00
2024-04-06T02:35:55.682Z,94872.00
2024-04-06T02:36:55.689Z,94874.00
2024-04-06T02:37:55.688Z,94873.00
2024-04-06T02:38:55.697Z,94874.00
2024-04-06T02:39:55.708Z,94873.00
2024-04-06T02:40:59.003Z,94873.00
2024-04-06T02:41:55.731Z,94872.00
2024-04-06T02:42:55.734Z,94871.00
2024-04-06T02:44:22.008Z,94867.00
2024-04-06T02:44:55.746Z,94867.00
2024-04-06T02:45:55.761Z,94865.00
2024-04-06T02:47:27.011Z,94864.00
2024-04-06T02:47:55.747Z,94864.00
2024-04-06T02:48:55.752Z,94869.00
2024-04-06T02:49:55.751Z,94869.00
2024-04-06T02:50:55.764Z,94870.00
2024-04-06T02:51:55.763Z,94868.00
2024-04-06T02:52:55.807Z,94870.00
2024-04-06T02:53:55.762Z,94872.00
2024-04-06T02:54:55.769Z,94876.00
2024-04-06T02:55:55.758Z,94877.00
2024-04-06T02:56:55.752Z,94877.00
2024-04-06T02:57:55.774Z,94877.00
2024-04-06T02:58:55.757Z,94879.00
2024-04-06T02:59:55.763Z,94878.00
2024-04-06T03:00:55.753Z,94879.00
2024-04-06T03:01:55.755Z,94880.00
2024-04-06T03:03:10.513Z,94879.00
2024-04-06T03:03:55.753Z,94883.00
2024-04-06T03:04:55.765Z,94881.00
2024-04-06T03:06:02.512Z,94883.00
2024-04-06T03:06:55.751Z,94884.00
2024-04-06T03:07:55.764Z,94884.00
2024-04-06T03:09:16.778Z,94885.00
2024-04-06T03:09:55.764Z,94886.00
2024-04-06T03:10:55.767Z,94886.00
2024-04-06T03:12:16.771Z,94885.00
2024-04-06T03:12:55.772Z,94885.00
2024-04-06T03:13:55.777Z,94884.00
2024-04-06T03:14:55.789Z,94884.00
2024-04-06T03:15:55.783Z,94882.00
2024-04-06T03:16:55.792Z,94882.00
2024-04-06T03:17:55.788Z,94881.00
2024-04-06T03:18:55.812Z,94885.00
2024-04-06T03:19:55.801Z,94886.00
2024-04-06T03:20:55.783Z,94889.00
2024-04-06T03:21:55.786Z,94887.00
2024-04-06T03:22:55.792Z,94889.00
2024-04-06T03:23:55.786Z,94886.00
2024-04-06T03:24:55.796Z,94884.00
2024-04-06T03:25:55.794Z,94885.00
2024-04-06T03:26:55.798Z,94886.00
2024-04-06T03:27:55.807Z,94885.00
2024-04-06T03:28:55.801Z,94887.00
2024-04-06T03:29:55.804Z,94886.00
2024-04-06T03:30:55.804Z,94886.00
2024-04-06T03:31:55.823Z,94887.00
2024-04-06T03:32:55.818Z,94885.00
2024-04-06T03:34:02.523Z,94886.00
2024-04-06T03:34:55.810Z,94886.00
2024-04-06T03:35:55.797Z,94888.00
2024-04-06T03:37:12.038Z,94888.00
2024-04-06T03:37:55.812Z,94889.00
2024-04-06T03:38:55.808Z,94888.00
2024-04-06T03:40:27.533Z,94888.00
2024-04-06T03:40:55.816Z,94888.00
2024-04-06T03:41:55.843Z,94888.00
2024-04-06T03:42:55.815Z,94886.00
2024-04-06T03:43:55.821Z,94889.00
2024-04-06T03:44:55.825Z,94889.00
2024-04-06T03:45:55.814Z,94891.00
2024-04-06T03:46:55.824Z,94890.00
2024-04-06T03:47:55.819Z,94890.00
2024-04-06T03:48:55.819Z,94889.00
2024-04-06T03:49:55.823Z,94888.00
2024-04-06T03:50:55.825Z,94891.00
2024-04-06T03:51:55.828Z,94890.00
2024-04-06T03:52:55.828Z,94891.00
2024-04-06T03:53:55.827Z,94892.00
2024-04-06T03:54:55.849Z,94892.00
2024-04-06T03:56:10.533Z,94893.00
2024-04-06T03:56:55.827Z,94893.00
2024-04-06T03:57:55.834Z,94895.00
2024-04-06T03:58:58.532Z,94895.00
2024-04-06T03:59:55.839Z,94899.00
2024-04-06T04:00:55.829Z,94899.00
2024-04-06T04:01:58.529Z,94898.00
2024-04-06T04:02:55.831Z,94898.00
2024-04-06T04:03:55.831Z,94899.00
2024-04-06T04:05:24.553Z,94898.00
2024-04-06T04:05:55.838Z,94901.00
2024-04-06T04:06:55.836Z,94900.00
2024-04-06T04:07:55.848Z,94899.00
2024-04-06T04:08:55.837Z,94897.00
2024-04-06T04:09:55.841Z,94897.00
2024-04-06T04:10:55.886Z,94896.00
2024-04-06T04:11:55.843Z,94897.00
2024-04-06T04:12:55.838Z,94898.00
2024-04-06T04:13:55.841Z,94897.00
2024-04-06T04:14:55.845Z,94896.00
2024-04-06T04:15:55.837Z,94896.00
2024-04-06T04:16:55.842Z,94898.00
2024-04-06T04:17:55.834Z,94897.00
2024-04-06T04:18:55.848Z,94896.00
2024-04-06T04:19:55.850Z,94900.00
2024-04-06T04:20:55.844Z,94900.00
2024-04-06T04:21:55.839Z,94901.00
2024-04-06T04:22:55.840Z,94904.00
2024-04-06T04:24:02.551Z,94905.00
2024-04-06T04:24:55.860Z,94907.00
2024-04-06T04:25:55.845Z,94908.00
2024-04-06T04:27:02.544Z,94909.00
2024-04-06T04:28:09.763Z,94912.00
2024-04-06T04:29:09.759Z,94912.00
2024-04-06T04:30:09.768Z,94915.00
2024-04-06T04:31:16.978Z,94916.00
2024-04-06T04:32:16.973Z,94915.00
2024-04-06T04:33:17.575Z,94914.00
2024-04-06T04:34:16.981Z,94916.00
2024-04-06T04:35:16.993Z,94917.00
2024-04-06T04:36:23.585Z,94915.00
2024-04-06T04:37:16.986Z,94917.00
2024-04-06T04:38:16.984Z,94917.00
2024-04-06T04:39:31.592Z,94917.00
2024-04-06T04:40:17.183Z,94919.00
2024-04-06T04:41:17.210Z,94922.00
2024-04-06T04:42:38.234Z,94922.00
2024-04-06T04:43:17.255Z,94923.00
2024-04-06T04:44:35.333Z,94924.00
2024-04-06T04:45:18.252Z,94925.00
2024-04-06T04:46:17.237Z,94923.00
2024-04-06T04:47:17.245Z,94924.00
2024-04-06T04:48:17.266Z,94924.00
2024-04-06T04:49:17.245Z,94924.00
2024-04-06T04:50:17.249Z,94925.00
2024-04-06T04:51:17.257Z,94925.00
2024-04-06T04:52:17.252Z,94924.00
2024-04-06T04:53:17.243Z,94924.00
2024-04-06T04:54:17.258Z,94925.00
2024-04-06T04:55:17.250Z,94925.00
2024-04-06T04:56:17.252Z,94926.00
2024-04-06T04:57:17.257Z,94926.00
2024-04-06T04:58:24.082Z,94926.00
2024-04-06T04:59:17.254Z,94928.00
2024-04-06T05:00:17.261Z,94927.00
2024-04-06T05:01:32.146Z,94931.00
2024-04-06T05:02:17.274Z,94932.00
2024-04-06T05:03:17.260Z,94931.00
2024-04-06T05:04:32.085Z,94933.00
2024-04-06T05:05:17.278Z,94935.00
2024-04-06T05:06:17.272Z,94935.00
2024-04-06T05:07:38.278Z,94934.00
2024-04-06T05:08:17.288Z,94932.00
2024-04-06T05:09:17.277Z,94931.00
2024-04-06T05:10:17.295Z,94931.00
2024-04-06T05:11:17.312Z,94929.00
2024-04-06T05:12:17.294Z,94927.00
2024-04-06T05:13:17.294Z,94927.00
2024-04-06T05:14:17.291Z,94928.00
2024-04-06T05:15:17.296Z,94930.00
2024-04-06T05:16:17.297Z,94930.00
2024-04-06T05:17:17.297Z,94932.00
2024-04-06T05:18:17.301Z,94938.00
2024-04-06T05:19:17.303Z,94940.00
2024-04-06T05:20:17.309Z,94943.00
2024-04-06T05:21:17.311Z,94947.00
2024-04-06T05:22:17.309Z,94947.00
2024-04-06T05:23:17.310Z,94948.00
2024-04-06T05:24:17.313Z,94950.00
2024-04-06T05:25:17.319Z,94950.00
2024-04-06T05:26:17.318Z,94949.00
2024-04-06T05:27:17.372Z,94951.00
2024-04-06T05:28:17.326Z,94953.00
2024-04-06T05:29:38.372Z,94955.00
2024-04-06T05:30:17.323Z,94955.00
2024-04-06T05:31:17.330Z,94955.00
2024-04-06T05:32:17.330Z,94952.00
2024-04-06T05:33:17.339Z,94950.00
2024-04-06T05:34:17.349Z,94949.00
2024-04-06T05:35:17.351Z,94946.00
2024-04-06T05:36:17.341Z,94944.00
2024-04-06T05:37:17.341Z,94946.00
2024-04-06T05:38:17.336Z,94948.00
2024-04-06T05:39:17.340Z,94951.00
2024-04-06T05:40:17.365Z,94951.00
2024-04-06T05:41:17.346Z,94952.00
2024-04-06T05:42:17.345Z,94950.00
2024-04-06T05:43:17.343Z,94949.00
2024-04-06T05:44:17.345Z,94949.00
2024-04-06T05:45:17.356Z,94949.00
2024-04-06T05:46:17.355Z,94949.00
2024-04-06T05:47:17.349Z,94949.00
2024-04-06T05:48:17.349Z,94948.00
2024-04-06T05:49:17.354Z,94951.00
2024-04-06T05:50:17.356Z,94950.00
2024-04-06T05:51:17.347Z,94951.00
2024-04-06T05:52:17.354Z,94948.00
2024-04-06T05:53:17.353Z,94948.00
2024-04-06T05:54:20.106Z,94945.00
2024-04-06T05:55:17.380Z,94942.00
2024-04-06T05:56:17.365Z,94941.00
2024-04-06T05:57:38.373Z,94937.00
2024-04-06T05:58:17.372Z,94935.00
2024-04-06T05:59:17.369Z,94929.00
2024-04-06T06:00:35.648Z,94927.00
2024-04-06T06:01:17.378Z,94927.00
2024-04-06T06:02:17.374Z,94924.00
2024-04-06T06:03:17.375Z,94927.00
2024-04-06T06:04:17.386Z,94929.00
2024-04-06T06:05:17.378Z,94930.00
2024-04-06T06:06:17.368Z,94932.00
2024-04-06T06:07:17.378Z,94931.00
2024-04-06T06:08:17.383Z,94930.00
2024-04-06T06:09:17.380Z,94931.00
2024-04-06T06:10:17.381Z,94929.00
2024-04-06T06:11:17.402Z,94930.00
2024-04-06T06:12:17.389Z,94929.00
2024-04-06T06:13:17.383Z,94931.00
2024-04-06T06:14:19.092Z,94935.00
2024-04-06T06:15:17.387Z,94934.00
2024-04-06T06:16:24.122Z,94935.00
2024-04-06T06:17:17.396Z,94932.00
2024-04-06T06:18:17.391Z,94933.00
2024-04-06T06:19:32.118Z,94934.00
2024-04-06T06:20:17.398Z,94938.00
2024-04-06T06:21:17.391Z,94939.00
2024-04-06T06:22:24.120Z,94940.00
2024-04-06T06:23:17.409Z,94941.00
2024-04-06T06:24:17.398Z,94937.00
2024-04-06T06:25:43.634Z,94935.00
2024-04-06T06:26:17.409Z,94934.00
2024-04-06T06:27:17.403Z,94933.00
2024-04-06T06:28:17.405Z,94930.00
2024-04-06T06:29:17.402Z,94931.00
2024-04-06T06:30:17.406Z,94930.00
2024-04-06T06:31:17.406Z,94932.00
2024-04-06T06:32:17.420Z,94932.00
2024-04-06T06:33:17.448Z,94932.00
2024-04-06T06:34:17.453Z,94933.00
2024-04-06T06:35:17.482Z,94933.00
2024-04-06T06:38:17.512Z,94935.00
2024-04-06T06:41:17.485Z,94942.00
2024-04-06T06:42:17.490Z,94941.00
2024-04-06T06:43:17.497Z,94939.00
2024-04-06T06:44:17.492Z,94938.00
2024-04-06T06:45:17.508Z,94937.00
2024-04-06T06:46:17.508Z,94934.00
2024-04-06T06:47:17.519Z,94937.00
2024-04-06T06:48:17.561Z,94937.00
2024-04-06T06:49:17.529Z,94940.00
2024-04-06T06:50:41.669Z,94939.00
2024-04-06T06:51:17.508Z,94940.00
2024-04-06T06:52:17.528Z,94941.00
2024-04-06T06:53:38.575Z,94940.00
2024-04-06T06:54:17.523Z,94941.00
2024-04-06T06:55:17.532Z,94940.00
2024-04-06T06:56:17.527Z,94944.00
2024-04-06T06:57:17.523Z,94941.00
2024-04-06T06:58:17.534Z,94941.00
2024-04-06T06:59:17.540Z,94939.00
2024-04-06T07:01:17.542Z,94941.00
2024-04-06T07:02:17.540Z,94942.00
2024-04-06T07:03:17.535Z,94938.00
2024-04-06T07:04:17.539Z,94937.00
2024-04-06T07:05:17.556Z,94936.00
2024-04-06T07:07:06.629Z,94930.00
2024-04-06T07:07:18.554Z,94928.00
2024-04-06T07:08:17.551Z,94922.00
2024-04-06T07:09:24.137Z,94918.00
2024-04-06T07:10:17.595Z,94917.00
2024-04-06T07:11:17.558Z,94917.00
2024-04-06T07:12:38.566Z,94918.00
2024-04-06T07:13:17.577Z,94916.00
2024-04-06T07:14:17.567Z,94915.00
2024-04-06T07:15:17.567Z,94917.00
2024-04-06T07:16:17.568Z,94918.00
2024-04-06T07:17:17.565Z,94915.00
2024-04-06T07:18:45.154Z,94915.00
2024-04-06T07:19:17.577Z,94917.00
2024-04-06T07:20:17.582Z,94918.00
2024-04-06T07:21:17.584Z,94919.00
2024-04-06T07:22:17.585Z,94922.00
2024-04-06T07:23:17.589Z,94923.00
2024-04-06T07:24:17.596Z,94923.00
2024-04-06T07:25:17.593Z,94925.00
2024-04-06T07:26:17.593Z,94927.00
2024-04-06T07:27:17.590Z,94928.00
2024-04-06T07:28:17.593Z,94928.00
2024-04-06T07:29:17.594Z,94929.00
2024-04-06T07:30:17.600Z,94930.00
2024-04-06T07:31:17.596Z,94929.00
2024-04-06T07:32:17.590Z,94930.00
2024-04-06T07:33:17.590Z,94930.00
2024-04-06T07:34:17.603Z,94929.00
2024-04-06T07:35:17.629Z,94931.00
2024-04-06T07:36:17.603Z,94932.00
2024-04-06T07:37:32.155Z,94932.00
2024-04-06T07:38:20.666Z,94930.00
2024-04-06T07:39:20.530Z,94929.00
2024-04-06T07:40:36.164Z,94931.00
2024-04-06T07:41:17.775Z,94928.00
2024-04-06T07:42:17.775Z,94928.00
2024-04-06T07:43:38.787Z,94928.00
2024-04-06T07:44:17.791Z,94929.00
2024-04-06T07:45:17.797Z,94926.00
2024-04-06T07:46:17.793Z,94927.00
2024-04-06T07:47:17.789Z,94924.00
2024-04-06T07:48:17.794Z,94925.00
2024-04-06T07:49:17.807Z,94923.00
2024-04-06T07:50:17.803Z,94923.00
2024-04-06T07:51:17.812Z,94920.00
2024-04-06T07:52:17.803Z,94921.00
2024-04-06T07:53:17.800Z,94920.00
2024-04-06T07:54:17.806Z,94918.00
2024-04-06T07:55:17.803Z,94917.00
2024-04-06T07:56:17.805Z,94916.00
2024-04-06T07:57:17.810Z,94917.00
2024-04-06T07:58:17.818Z,94915.00
2024-04-06T07:59:24.666Z,94916.00
2024-04-06T08:00:17.838Z,94917.00
2024-04-06T08:01:17.813Z,94915.00
2024-04-06T08:02:24.673Z,94917.00
2024-04-06T08:03:17.821Z,94913.00
2024-04-06T08:04:17.825Z,94912.00
2024-04-06T08:05:36.175Z,94908.00
2024-04-06T08:06:17.827Z,94910.00
2024-04-06T08:07:17.828Z,94909.00
2024-04-06T08:08:39.668Z,94909.00
2024-04-06T08:09:17.845Z,94909.00
2024-04-06T08:10:17.881Z,94907.00
2024-04-06T08:11:41.674Z,94907.00
2024-04-06T08:12:17.841Z,94907.00
2024-04-06T08:13:17.849Z,94904.00
2024-04-06T08:14:24.345Z,94902.00
2024-04-06T08:15:18.861Z,94902.00
2024-04-06T08:16:17.844Z,94902.00
2024-04-06T08:17:17.849Z,94901.00
2024-04-06T08:18:17.867Z,94899.00
2024-04-06T08:19:17.858Z,94900.00
2024-04-06T08:20:17.873Z,94900.00
2024-04-06T08:21:17.870Z,94897.00
2024-04-06T08:22:17.866Z,94900.00
2024-04-06T08:23:17.859Z,94898.00
2024-04-06T08:24:18.682Z,94898.00
2024-04-06T08:25:17.925Z,94894.00
2024-04-06T08:26:17.985Z,94897.00
2024-04-06T08:27:18.052Z,94896.00
2024-04-06T08:28:18.111Z,94894.00
2024-04-06T08:29:18.192Z,94892.00
2024-04-06T08:30:18.276Z,94891.00
2024-04-06T08:31:18.311Z,94887.00
2024-04-06T08:32:18.387Z,94889.00
2024-04-06T08:33:25.183Z,94888.00
2024-04-06T08:34:18.477Z,94887.00
2024-04-06T08:35:18.451Z,94884.00
2024-04-06T08:36:33.201Z,94881.00
2024-04-06T08:37:18.447Z,94880.00
2024-04-06T08:38:18.444Z,94878.00
2024-04-06T08:39:18.447Z,94878.00
2024-04-06T08:40:18.510Z,94879.00
2024-04-06T08:41:18.471Z,94879.00
2024-04-06T08:42:18.467Z,94874.00
2024-04-06T08:43:18.448Z,94875.00
2024-04-06T08:44:18.447Z,94872.00
2024-04-06T08:45:18.463Z,94873.00
2024-04-06T08:46:18.468Z,94871.00
2024-04-06T08:47:18.461Z,94870.00
2024-04-06T08:48:18.472Z,94867.00
2024-04-06T08:49:18.479Z,94867.00
2024-04-06T08:50:18.460Z,94865.00
2024-04-06T08:51:18.470Z,94862.00
2024-04-06T08:52:18.470Z,94863.00
2024-04-06T08:53:18.463Z,94861.00
2024-04-06T08:54:18.480Z,94863.00
2024-04-06T08:55:18.488Z,94861.00
2024-04-06T08:56:18.463Z,94859.00
2024-04-06T08:57:18.475Z,94862.00
2024-04-06T08:58:25.194Z,94858.00
2024-04-06T08:59:18.466Z,94858.00
2024-04-06T09:00:18.471Z,94859.00
2024-04-06T09:01:46.196Z,94857.00
2024-04-06T09:02:18.487Z,94854.00
2024-04-06T09:03:18.478Z,94852.00
2024-04-06T09:04:33.200Z,94849.00
2024-04-06T09:05:18.495Z,94848.00
2024-04-06T09:06:18.504Z,94846.00
2024-04-06T09:07:18.493Z,94846.00
2024-04-06T09:08:18.489Z,94844.00
2024-04-06T09:09:18.488Z,94842.00
2024-04-06T09:10:18.562Z,94840.00
2024-04-06T09:11:18.504Z,94838.00
2024-04-06T09:12:18.494Z,94836.00
2024-04-06T09:13:18.515Z,94835.00
2024-04-06T09:14:18.488Z,94832.00
2024-04-06T09:15:18.506Z,94833.00
2024-04-06T09:16:18.570Z,94832.00
2024-04-06T09:17:18.502Z,94830.00
2024-04-06T09:18:18.502Z,94829.00
2024-04-06T09:19:18.510Z,94828.00
2024-04-06T09:20:23.711Z,94826.00
2024-04-06T09:21:18.512Z,94824.00
2024-04-06T09:22:18.553Z,94825.00
2024-04-06T09:23:25.210Z,94824.00
2024-04-06T09:24:18.516Z,94821.00
2024-04-06T09:25:18.520Z,94821.00
2024-04-06T09:26:29.217Z,94820.00
2024-04-06T09:27:18.511Z,94822.00
2024-04-06T09:28:18.541Z,94818.00
2024-04-06T09:29:33.210Z,94817.00
2024-04-06T09:30:18.526Z,94817.00
2024-04-06T09:31:18.538Z,94815.00
2024-04-06T09:32:18.532Z,94814.00
2024-04-06T09:33:18.536Z,94811.00
2024-04-06T09:34:18.548Z,94810.00
2024-04-06T09:35:18.534Z,94809.00
2024-04-06T09:36:18.538Z,94807.00
2024-04-06T09:37:18.550Z,94805.00
2024-04-06T09:38:18.548Z,94804.00
2024-04-06T09:39:18.539Z,94801.00
2024-04-06T09:40:18.592Z,94800.00
2024-04-06T09:41:18.546Z,94796.00
2024-04-06T09:42:18.543Z,94796.00
2024-04-06T09:43:18.561Z,94794.00
2024-04-06T09:44:18.552Z,94795.00
2024-04-06T09:45:18.553Z,94791.00
2024-04-06T09:46:18.588Z,94792.00
2024-04-06T09:47:18.539Z,94792.00
2024-04-06T09:48:21.219Z,94791.00
2024-04-06T09:49:18.582Z,94790.00
2024-04-06T09:50:18.567Z,94788.00
2024-04-06T09:51:39.562Z,94787.00
2024-04-06T09:52:18.572Z,94784.00
2024-04-06T09:53:18.583Z,94787.00
2024-04-06T09:54:33.223Z,94784.00
2024-04-06T09:55:18.602Z,94782.00
2024-04-06T09:56:18.563Z,94781.00
2024-04-06T09:57:39.578Z,94778.00
2024-04-06T09:58:18.632Z,94775.00
2024-04-06T09:59:18.577Z,94770.00
2024-04-06T10:00:18.578Z,94768.00
2024-04-06T10:01:18.652Z,94765.00
2024-04-06T10:02:18.592Z,94764.00
2024-04-06T10:03:18.579Z,94761.00
2024-04-06T10:04:18.599Z,94758.00
2024-04-06T10:05:18.584Z,94759.00
2024-04-06T10:06:18.589Z,94757.00
2024-04-06T10:07:18.689Z,94755.00
2024-04-06T10:08:18.593Z,94756.00
2024-04-06T10:09:18.594Z,94753.00
2024-04-06T10:10:18.625Z,94753.00
2024-04-06T10:11:18.615Z,94752.00
2024-04-06T10:12:18.602Z,94752.00
2024-04-06T10:13:18.644Z,94750.00
2024-04-06T10:14:19.482Z,94751.00
2024-04-06T10:15:18.608Z,94747.00
2024-04-06T10:16:21.234Z,94748.00
2024-04-06T10:17:18.630Z,94747.00
2024-04-06T10:18:18.608Z,94747.00
2024-04-06T10:19:33.234Z,94747.00
2024-04-06T10:20:18.625Z,94749.00
2024-04-06T10:21:18.604Z,94752.00
2024-04-06T10:22:18.672Z,94751.00
2024-04-06T10:23:18.626Z,94753.00
2024-04-06T10:24:18.615Z,94754.00
2024-04-06T10:25:18.679Z,94750.00
2024-04-06T10:26:18.619Z,94751.00
2024-04-06T10:27:18.626Z,94750.00
2024-04-06T10:28:18.649Z,94747.00
2024-04-06T10:29:18.621Z,94746.00
2024-04-06T10:30:18.626Z,94745.00
2024-04-06T10:31:20.802Z,94743.00
2024-04-06T10:32:19.638Z,94743.00
2024-04-06T10:33:18.632Z,94740.00
2024-04-06T10:34:18.655Z,94739.00
2024-04-06T10:35:18.639Z,94738.00
2024-04-06T10:36:18.639Z,94734.00
2024-04-06T10:37:18.669Z,94736.00
2024-04-06T10:38:18.652Z,94733.00
2024-04-06T10:39:18.638Z,94733.00
2024-04-06T10:40:18.716Z,94731.00
2024-04-06T10:41:18.713Z,94731.00
2024-04-06T10:42:18.786Z,94729.00
2024-04-06T10:43:18.867Z,94729.00
2024-04-06T10:44:39.900Z,94726.00
2024-04-06T10:45:18.914Z,94726.00
2024-04-06T10:46:18.970Z,94722.00
2024-04-06T10:47:33.752Z,94718.00
2024-04-06T10:48:18.912Z,94718.00
2024-04-06T10:49:18.949Z,94714.00
2024-04-06T10:50:39.932Z,94714.00
2024-04-06T10:51:18.918Z,94712.00
2024-04-06T10:52:18.943Z,94709.00
2024-04-06T10:53:18.939Z,94708.00
2024-04-06T10:54:18.927Z,94706.00
2024-04-06T10:55:18.978Z,94705.00
2024-04-06T10:56:18.937Z,94705.00
2024-04-06T10:57:18.924Z,94700.00
2024-04-06T10:58:18.984Z,94701.00
2024-04-06T10:59:18.933Z,94699.00
2024-04-06T11:00:18.934Z,94700.00
2024-04-06T11:01:19.005Z,94699.00
2024-04-06T11:02:18.925Z,94698.00
2024-04-06T11:03:18.929Z,94698.00
2024-04-06T11:04:19.000Z,94697.00
2024-04-06T11:05:18.927Z,94698.00
2024-04-06T11:06:18.939Z,94696.00
2024-04-06T11:07:18.969Z,94695.00
2024-04-06T11:08:18.942Z,94694.00
2024-04-06T11:09:25.759Z,94694.00
2024-04-06T11:10:19.007Z,94692.00
2024-04-06T11:11:18.940Z,94692.00
2024-04-06T11:12:39.949Z,94690.00
2024-04-06T11:13:18.992Z,94687.00
2024-04-06T11:14:18.952Z,94685.00
2024-04-06T11:15:33.764Z,94684.00
2024-04-06T11:16:18.975Z,94682.00
2024-04-06T11:17:18.952Z,94682.00
2024-04-06T11:18:18.962Z,94683.00
2024-04-06T11:19:19.063Z,94680.00
2024-04-06T11:20:18.969Z,94677.00
2024-04-06T11:21:18.970Z,94676.00
2024-04-06T11:22:18.993Z,94672.00
2024-04-06T11:23:18.963Z,94672.00
2024-04-06T11:24:18.962Z,94670.00
2024-04-06T11:25:19.062Z,94670.00
2024-04-06T11:26:18.969Z,94669.00
2024-04-06T11:27:18.976Z,94668.00
2024-04-06T11:28:18.999Z,94667.00
2024-04-06T11:29:18.975Z,94666.00
2024-04-06T11:30:18.971Z,94663.00
2024-04-06T11:31:19.028Z,94661.00
2024-04-06T11:32:18.983Z,94658.00
2024-04-06T11:33:18.977Z,94656.00
2024-04-06T11:34:19.018Z,94654.00
2024-04-06T11:35:18.975Z,94651.00
2024-04-06T11:36:18.980Z,94652.00
2024-04-06T11:37:21.785Z,94649.00
2024-04-06T11:38:18.979Z,94649.00
2024-04-06T11:39:18.983Z,94648.00
2024-04-06T11:40:33.781Z,94648.00
2024-04-06T11:41:19.004Z,94646.00
2024-04-06T11:42:18.994Z,94645.00
2024-04-06T11:43:39.995Z,94645.00
2024-04-06T11:44:18.991Z,94643.00
2024-04-06T11:45:19.005Z,94641.00
2024-04-06T11:46:19.013Z,94642.00
2024-04-06T11:47:18.999Z,94639.00
2024-04-06T11:48:19.026Z,94640.00
2024-04-06T11:49:19.050Z,94638.00
2024-04-06T11:50:19.005Z,94639.00